createdAt,value
2018-06-30T00:02:09.580Z,62.34
2018-06-30T00:05:18.433Z,61.79
2018-06-30T00:08:20.514Z,63.30
2018-06-30T00:11:22.960Z,62.28
2018-06-30T00:14:25.093Z,62.11
2018-06-30T00:17:27.161Z,62.84
2018-06-30T00:20:29.204Z,63.20
2018-06-30T00:23:31.337Z,63.41
2018-06-30T00:26:33.534Z,62.83
2018-06-30T00:29:35.657Z,63.82
2018-06-30T00:32:37.699Z,62.37
2018-06-30T00:35:39.759Z,63.46
2018-06-30T00:38:41.917Z,64.07
2018-06-30T00:41:44.558Z,63.34
2018-06-30T00:44:48.616Z,64.53
2018-06-30T00:47:50.719Z,65.83
2018-06-30T00:50:52.781Z,65.80
2018-06-30T00:53:54.868Z,66.12
2018-06-30T00:56:56.975Z,64.44
2018-06-30T00:59:59.020Z,65.65
2018-06-30T01:03:01.192Z,65.19
2018-06-30T01:06:03.375Z,66.06
2018-06-30T01:09:07.002Z,65.29
2018-06-30T01:12:09.055Z,66.76
2018-06-30T01:15:11.249Z,66.21
2018-06-30T01:18:14.572Z,66.34
2018-06-30T01:21:28.880Z,66.94
2018-06-30T01:24:31.039Z,67.38
2018-06-30T01:27:33.231Z,66.35
2018-06-30T01:30:35.479Z,67.03
2018-06-30T01:33:37.656Z,65.68
2018-06-30T01:36:39.724Z,66.65
2018-06-30T01:39:41.769Z,67.00
2018-06-30T01:42:44.164Z,67.21
2018-06-30T01:45:46.224Z,67.39
2018-06-30T01:48:49.305Z,67.85
2018-06-30T01:51:51.380Z,67.55
2018-06-30T01:54:53.555Z,67.94
2018-06-30T01:57:55.798Z,67.83
2018-06-30T02:00:57.889Z,68.76
2018-06-30T02:03:59.936Z,69.69
2018-06-30T02:07:02.044Z,68.34
2018-06-30T02:10:04.251Z,67.85
2018-06-30T02:13:06.175Z,68.57
2018-06-30T02:16:08.229Z,68.06
2018-06-30T02:19:10.396Z,68.10
2018-06-30T02:22:12.474Z,67.76
2018-06-30T02:25:15.122Z,67.61
2018-06-30T02:28:17.240Z,67.43
2018-06-30T02:31:19.419Z,67.42
2018-06-30T02:34:21.535Z,66.77
2018-06-30T02:37:23.525Z,67.66
2018-06-30T02:40:25.671Z,68.30
2018-06-30T02:43:27.792Z,67.65
2018-06-30T02:46:29.864Z,68.51
2018-06-30T02:49:42.517Z,67.56
2018-06-30T02:52:44.879Z,69.08
2018-06-30T02:55:46.925Z,68.94
2018-06-30T02:59:02.314Z,69.56
2018-06-30T03:02:04.340Z,68.79
2018-06-30T03:05:06.443Z,70.05
2018-06-30T03:08:09.553Z,69.64
2018-06-30T03:11:11.718Z,69.54
2018-06-30T03:14:14.700Z,70.55
2018-06-30T03:17:17.804Z,69.00
2018-06-30T03:20:19.990Z,69.99
2018-06-30T03:23:21.967Z,70.47
2018-06-30T03:26:23.990Z,70.25
2018-06-30T03:29:26.066Z,71.13
2018-06-30T03:32:28.032Z,70.62
2018-06-30T03:35:30.605Z,70.46
2018-06-30T03:38:32.724Z,70.82
2018-06-30T03:41:34.744Z,69.79
2018-06-30T03:44:36.920Z,70.17
2018-06-30T03:47:39.083Z,69.90
2018-06-30T03:50:41.177Z,68.90
2018-06-30T03:53:44.341Z,69.72
2018-06-30T03:56:46.467Z,69.24
2018-06-30T03:59:48.458Z,70.01
2018-06-30T04:02:50.391Z,69.73
2018-06-30T04:05:52.530Z,70.34
2018-06-30T04:08:54.743Z,70.48
2018-06-30T04:12:03.832Z,70.07
2018-06-30T04:15:06.272Z,70.56
2018-06-30T04:18:08.381Z,70.73
2018-06-30T04:21:16.072Z,71.18
2018-06-30T04:24:18.150Z,70.54
2018-06-30T04:27:20.199Z,71.11
2018-06-30T04:30:22.291Z,70.47
2018-06-30T04:33:24.354Z,70.67
2018-06-30T04:36:26.429Z,70.24
2018-06-30T04:39:28.372Z,69.09
2018-06-30T04:42:30.450Z,69.55
2018-06-30T04:45:32.531Z,69.83
2018-06-30T04:48:34.708Z,69.68
2018-06-30T04:51:36.867Z,68.97
2018-06-30T04:54:38.923Z,69.28
2018-06-30T04:57:41.172Z,68.43
2018-06-30T05:00:43.977Z,67.99
2018-06-30T05:03:46.872Z,67.45
2018-06-30T05:06:48.947Z,67.22
2018-06-30T05:09:51.126Z,66.33
2018-06-30T05:13:16.926Z,64.45
2018-06-30T05:16:19.002Z,61.72
2018-06-30T05:19:21.037Z,61.08
2018-06-30T05:22:23.162Z,60.18
2018-06-30T05:25:25.225Z,60.01
2018-06-30T05:28:27.303Z,60.12
2018-06-30T05:31:29.473Z,60.09
2018-06-30T05:34:31.631Z,58.35
2018-06-30T05:37:33.683Z,56.49
2018-06-30T05:40:35.800Z,57.05
2018-06-30T05:43:37.926Z,57.16
2018-06-30T05:46:40.017Z,57.15
2018-06-30T05:49:41.991Z,57.49
2018-06-30T05:52:44.118Z,57.42
2018-06-30T05:55:46.908Z,55.98
2018-06-30T05:58:49.013Z,56.49
2018-06-30T06:01:51.067Z,56.51
2018-06-30T06:04:53.195Z,56.68
2018-06-30T06:07:55.195Z,56.49
2018-06-30T06:10:57.293Z,55.97
2018-06-30T06:13:59.384Z,55.72
2018-06-30T06:17:01.667Z,55.87
2018-06-30T06:20:04.198Z,54.50
2018-06-30T06:23:07.228Z,54.28
2018-06-30T06:26:09.675Z,54.82
2018-06-30T06:29:11.767Z,54.75
2018-06-30T06:32:13.987Z,54.46
2018-06-30T06:35:29.554Z,54.12
2018-06-30T06:38:31.697Z,54.52
2018-06-30T06:41:33.781Z,54.69
2018-06-30T06:44:46.391Z,54.87
2018-06-30T06:47:48.643Z,53.78
2018-06-30T06:50:50.768Z,52.25
2018-06-30T06:53:54.947Z,52.51
2018-06-30T06:56:58.207Z,51.60
2018-06-30T07:00:00.321Z,51.17
2018-06-30T07:03:08.419Z,51.48
2018-06-30T07:06:10.527Z,51.41
2018-06-30T07:09:12.644Z,50.42
2018-06-30T07:12:15.533Z,50.00
2018-06-30T07:15:17.817Z,49.24
2018-06-30T07:18:19.773Z,47.97
2018-06-30T07:21:21.895Z,48.96
2018-06-30T07:24:24.016Z,49.16
2018-06-30T07:27:26.193Z,48.68
2018-06-30T07:30:28.139Z,48.96
2018-06-30T07:33:30.236Z,48.44
2018-06-30T07:36:32.416Z,47.67
2018-06-30T07:39:34.531Z,48.45
2018-06-30T07:42:36.683Z,47.85
2018-06-30T07:45:38.709Z,47.83
2018-06-30T07:48:40.774Z,47.44
2018-06-30T07:51:42.880Z,47.37
2018-06-30T07:54:45.739Z,47.30
2018-06-30T07:57:47.831Z,47.00
2018-06-30T08:00:51.052Z,46.23
2018-06-30T08:03:52.862Z,44.50
2018-06-30T08:06:55.092Z,45.17
2018-06-30T08:09:57.271Z,44.74
2018-06-30T08:12:59.383Z,44.67
2018-06-30T08:16:01.601Z,43.88
2018-06-30T08:19:04.192Z,43.19
2018-06-30T08:22:07.300Z,42.83
2018-06-30T08:25:09.485Z,43.21
2018-06-30T08:28:11.623Z,42.35
2018-06-30T08:31:13.887Z,42.53
2018-06-30T08:34:16.322Z,41.82
2018-06-30T08:37:18.448Z,41.87
2018-06-30T08:40:20.617Z,41.85
2018-06-30T08:43:22.619Z,41.76
2018-06-30T08:46:24.963Z,43.00
2018-06-30T08:49:26.991Z,42.58
2018-06-30T08:52:29.559Z,42.79
2018-06-30T08:55:32.082Z,42.49
2018-06-30T08:58:35.538Z,41.17
2018-06-30T09:01:37.922Z,41.61
2018-06-30T09:04:40.549Z,41.29
2018-06-30T09:07:42.711Z,41.04
2018-06-30T09:10:44.952Z,40.38
2018-06-30T09:13:46.940Z,40.08
2018-06-30T09:16:49.167Z,39.73
2018-06-30T09:19:51.450Z,39.72
2018-06-30T09:22:53.459Z,38.80
2018-06-30T09:25:55.626Z,38.36
2018-06-30T09:28:57.769Z,38.53
2018-06-30T09:31:59.935Z,38.79
2018-06-30T09:35:02.137Z,38.37
2018-06-30T09:38:04.283Z,38.13
2018-06-30T09:41:06.426Z,38.03
2018-06-30T09:44:08.982Z,37.17
2018-06-30T09:47:11.133Z,37.10
2018-06-30T09:50:13.328Z,35.72
2018-06-30T09:53:15.600Z,36.49
2018-06-30T09:56:21.381Z,36.95
2018-06-30T09:59:23.843Z,37.26
2018-06-30T10:02:25.925Z,37.12
2018-06-30T10:05:28.277Z,35.58
2018-06-30T10:08:30.371Z,36.34
2018-06-30T10:11:36.303Z,36.89
2018-06-30T10:14:38.429Z,36.51
2018-06-30T10:17:41.951Z,35.63
2018-06-30T10:20:44.525Z,36.78
2018-06-30T10:23:47.070Z,35.55
2018-06-30T10:26:50.844Z,35.38
2018-06-30T10:29:53.056Z,35.53
2018-06-30T10:32:55.037Z,35.17
2018-06-30T10:35:58.537Z,34.70
2018-06-30T10:39:02.116Z,34.40
2018-06-30T10:42:05.009Z,34.71
2018-06-30T10:45:08.155Z,34.75
2018-06-30T10:48:10.728Z,33.99
2018-06-30T10:51:13.193Z,34.22
2018-06-30T10:54:15.721Z,34.52
2018-06-30T10:57:18.242Z,34.46
2018-06-30T11:00:21.789Z,33.94
2018-06-30T11:03:24.227Z,33.46
2018-06-30T11:06:26.276Z,33.46
2018-06-30T11:09:28.815Z,33.72
2018-06-30T11:12:31.322Z,33.70
2018-06-30T11:15:33.859Z,33.45
2018-06-30T11:18:37.331Z,33.18
2018-06-30T11:21:39.830Z,32.81
2018-06-30T11:24:41.908Z,32.74
2018-06-30T11:27:44.427Z,33.08
2018-06-30T11:30:46.839Z,32.38
2018-06-30T11:33:48.894Z,32.34
2018-06-30T11:36:51.558Z,32.37
2018-06-30T11:39:53.971Z,32.60
2018-06-30T11:42:55.987Z,32.08
2018-06-30T11:45:58.528Z,32.44
2018-06-30T11:49:00.989Z,32.41
2018-06-30T11:52:03.578Z,32.51
2018-06-30T11:55:06.055Z,31.48
2018-06-30T11:58:08.571Z,32.11
2018-06-30T12:01:10.731Z,31.36
2018-06-30T12:04:12.785Z,31.61
2018-06-30T12:07:15.959Z,31.04
2018-06-30T12:10:18.210Z,31.17
2018-06-30T12:13:20.324Z,31.83
2018-06-30T12:16:23.457Z,31.83
2018-06-30T12:19:25.588Z,31.43
2018-06-30T12:22:27.621Z,31.09
2018-06-30T12:25:30.016Z,30.99
2018-06-30T12:28:32.095Z,30.61
2018-06-30T12:31:34.236Z,30.46
2018-06-30T12:34:36.484Z,31.04
2018-06-30T12:37:38.564Z,30.59
2018-06-30T12:40:40.930Z,30.99
2018-06-30T12:43:43.805Z,31.28
2018-06-30T12:46:46.808Z,30.93
2018-06-30T12:49:48.781Z,31.19
2018-06-30T12:52:50.912Z,31.17
2018-06-30T12:55:52.921Z,31.04
2018-06-30T12:58:55.207Z,30.97
2018-06-30T13:01:57.326Z,30.91
2018-06-30T13:04:59.482Z,31.12
2018-06-30T13:08:01.631Z,30.79
2018-06-30T13:11:03.809Z,30.59
2018-06-30T13:14:06.244Z,30.14
2018-06-30T13:17:08.416Z,30.39
2018-06-30T13:20:10.576Z,29.56
2018-06-30T13:23:12.823Z,29.92
2018-06-30T13:26:14.811Z,30.67
2018-06-30T13:29:16.940Z,30.45
2018-06-30T13:32:19.014Z,30.27
2018-06-30T13:35:21.252Z,30.01
2018-06-30T13:38:23.580Z,30.93
2018-06-30T13:41:25.614Z,30.82
2018-06-30T13:44:27.866Z,30.63
2018-06-30T13:47:29.943Z,30.90
2018-06-30T13:50:32.113Z,31.17
2018-06-30T13:53:34.405Z,31.18
2018-06-30T13:56:36.663Z,30.72
2018-06-30T13:59:38.787Z,31.02
2018-06-30T14:02:41.024Z,30.68
2018-06-30T14:05:43.233Z,30.20
2018-06-30T14:08:45.299Z,29.94
2018-06-30T14:11:47.589Z,29.98
2018-06-30T14:14:50.676Z,29.92
2018-06-30T14:17:54.596Z,30.86
2018-06-30T14:20:56.657Z,30.58
2018-06-30T14:23:58.798Z,30.55
2018-06-30T14:27:00.890Z,29.98
2018-06-30T14:30:04.174Z,30.03
2018-06-30T14:33:07.313Z,30.26
2018-06-30T14:36:09.638Z,31.42
2018-06-30T14:39:12.435Z,31.71
2018-06-30T14:42:14.509Z,31.89
2018-06-30T14:45:17.650Z,31.65
2018-06-30T14:48:20.028Z,31.74
2018-06-30T14:51:22.056Z,31.72
2018-06-30T14:54:24.315Z,31.89
2018-06-30T14:57:26.583Z,31.59
2018-06-30T15:00:28.706Z,31.76
2018-06-30T15:03:30.843Z,30.93
2018-06-30T15:06:33.113Z,31.02
2018-06-30T15:09:35.222Z,31.31
2018-06-30T15:12:37.524Z,31.37
2018-06-30T15:15:40.225Z,31.89
2018-06-30T15:18:42.413Z,31.82
2018-06-30T15:21:45.493Z,31.53
2018-06-30T15:24:47.665Z,31.90
2018-06-30T15:27:49.735Z,31.90
2018-06-30T15:30:51.733Z,31.54
2018-06-30T15:33:53.929Z,31.34
2018-06-30T15:36:56.085Z,31.50
2018-06-30T15:39:58.112Z,31.10
2018-06-30T15:43:00.600Z,30.55
2018-06-30T15:46:03.354Z,30.88
2018-06-30T15:49:05.427Z,31.29
2018-06-30T15:52:07.530Z,31.18
2018-06-30T15:55:09.666Z,30.52
2018-06-30T15:58:11.865Z,30.79
2018-06-30T16:01:14.728Z,30.08
2018-06-30T16:04:17.883Z,30.26
2018-06-30T16:07:21.039Z,30.00
2018-06-30T16:10:23.156Z,30.06
2018-06-30T16:13:25.580Z,30.30
2018-06-30T16:16:27.942Z,30.26
2018-06-30T16:19:29.971Z,30.29
2018-06-30T16:22:32.004Z,29.86
2018-06-30T16:25:34.374Z,29.71
2018-06-30T16:28:36.469Z,29.86
2018-06-30T16:31:38.519Z,29.84
2018-06-30T16:34:41.015Z,29.99
2018-06-30T16:37:43.165Z,30.11
2018-06-30T16:40:45.379Z,29.81
2018-06-30T16:43:49.136Z,29.72
2018-06-30T16:46:51.205Z,28.91
2018-06-30T16:49:53.303Z,29.37
2018-06-30T16:52:55.485Z,29.30
2018-06-30T16:55:57.632Z,29.49
2018-06-30T16:58:59.712Z,29.28
2018-06-30T17:02:01.723Z,29.70
2018-06-30T17:05:03.911Z,29.41
2018-06-30T17:08:09.728Z,29.34
2018-06-30T17:11:11.877Z,29.12
2018-06-30T17:14:14.229Z,28.69
2018-06-30T17:17:16.308Z,28.55
2018-06-30T17:20:18.530Z,28.33
2018-06-30T17:23:20.652Z,27.94
2018-06-30T17:26:22.915Z,27.77
2018-06-30T17:29:24.939Z,27.43
2018-06-30T17:32:26.894Z,27.45
2018-06-30T17:35:29.038Z,27.27
2018-06-30T17:38:31.189Z,27.08
2018-06-30T17:41:33.349Z,26.71
2018-06-30T17:44:36.387Z,26.81
2018-06-30T17:47:38.491Z,26.21
2018-06-30T17:50:40.863Z,26.74
2018-06-30T17:53:43.007Z,26.21
2018-06-30T17:56:45.042Z,25.71
2018-06-30T17:59:47.012Z,25.93
2018-06-30T18:02:49.136Z,25.76
2018-06-30T18:05:51.283Z,25.28
2018-06-30T18:08:53.417Z,25.51
2018-06-30T18:11:56.400Z,25.63
2018-06-30T18:14:58.480Z,25.79
2018-06-30T18:18:00.435Z,25.81
2018-06-30T18:21:02.432Z,25.66
2018-06-30T18:24:07.659Z,25.54
2018-06-30T18:27:09.729Z,24.96
2018-06-30T18:30:11.916Z,25.03
2018-06-30T18:33:13.955Z,24.89
2018-06-30T18:36:16.042Z,25.43
2018-06-30T18:39:18.241Z,25.46
2018-06-30T18:42:22.352Z,25.20
2018-06-30T18:45:24.400Z,23.86
2018-06-30T18:48:26.592Z,23.93
2018-06-30T18:51:28.597Z,23.41
2018-06-30T18:54:30.732Z,23.43
2018-06-30T18:57:32.927Z,23.23
2018-06-30T19:00:35.199Z,23.14
2018-06-30T19:03:38.380Z,23.10
2018-06-30T19:06:40.590Z,22.71
2018-06-30T19:09:42.695Z,22.79
2018-06-30T19:12:45.680Z,22.69
2018-06-30T19:15:47.915Z,22.50
2018-06-30T19:18:49.994Z,22.95
2018-06-30T19:21:52.150Z,21.90
2018-06-30T19:24:54.483Z,21.38
2018-06-30T19:27:56.704Z,21.30
2018-06-30T19:30:58.910Z,20.67
2018-06-30T19:34:01.095Z,20.62
2018-06-30T19:37:03.353Z,21.10
2018-06-30T19:40:07.174Z,20.49
2018-06-30T19:43:09.247Z,20.34
2018-06-30T19:46:11.401Z,20.40
2018-06-30T19:49:13.572Z,20.47
2018-06-30T19:52:15.559Z,21.13
2018-06-30T19:55:19.222Z,20.68
2018-06-30T19:58:21.755Z,20.78
2018-06-30T20:01:23.920Z,20.84
2018-06-30T20:04:25.868Z,21.08
2018-06-30T20:07:31.172Z,21.08
2018-06-30T20:10:34.240Z,20.68
2018-06-30T20:13:36.521Z,20.81
2018-06-30T20:16:40.655Z,20.68
2018-06-30T20:19:42.815Z,20.68
2018-06-30T20:22:44.925Z,20.71
2018-06-30T20:25:47.128Z,20.70
2018-06-30T20:28:49.252Z,20.46
2018-06-30T20:31:51.408Z,20.91
2018-06-30T20:34:54.535Z,20.89
2018-06-30T20:37:56.629Z,20.98
2018-06-30T20:40:58.799Z,21.43
2018-06-30T20:44:00.955Z,21.43
2018-06-30T20:47:02.939Z,21.38
2018-06-30T20:50:06.006Z,21.23
2018-06-30T20:53:09.656Z,21.80
2018-06-30T20:56:11.784Z,21.41
2018-06-30T20:59:13.858Z,22.19
2018-06-30T21:02:15.936Z,22.09
2018-06-30T21:05:17.993Z,22.26
2018-06-30T21:08:20.213Z,22.28
2018-06-30T21:11:22.223Z,22.13
2018-06-30T21:14:24.339Z,22.74
2018-06-30T21:17:26.392Z,22.65
2018-06-30T21:20:28.469Z,22.66
2018-06-30T21:23:30.629Z,22.81
2018-06-30T21:26:32.714Z,22.92
2018-06-30T21:29:35.653Z,23.00
2018-06-30T21:32:37.645Z,23.15
2018-06-30T21:35:39.847Z,23.28
2018-06-30T21:38:41.875Z,23.44
2018-06-30T21:41:43.879Z,23.46
2018-06-30T21:44:46.028Z,23.38
2018-06-30T21:47:48.095Z,23.58
2018-06-30T21:50:50.144Z,23.43
2018-06-30T21:53:52.157Z,23.69
2018-06-30T21:56:54.184Z,23.65
2018-06-30T21:59:56.277Z,23.80
2018-06-30T22:02:58.374Z,23.86
2018-06-30T22:06:00.397Z,23.99
2018-06-30T22:09:06.483Z,23.86
2018-06-30T22:12:08.447Z,23.94
2018-06-30T22:15:10.688Z,24.21
2018-06-30T22:18:15.032Z,24.09
2018-06-30T22:21:17.097Z,24.28
2018-06-30T22:24:20.203Z,24.34
2018-06-30T22:27:22.413Z,24.67
2018-06-30T22:30:24.540Z,24.76
2018-06-30T22:33:27.640Z,24.88
2018-06-30T22:36:29.745Z,25.05
2018-06-30T22:39:43.345Z,25.16
2018-06-30T22:42:45.863Z,25.42
2018-06-30T22:45:47.863Z,25.63
2018-06-30T22:48:50.255Z,25.75
2018-06-30T22:51:52.227Z,26.00
2018-06-30T22:54:55.308Z,25.99
2018-06-30T22:57:59.464Z,26.23
2018-06-30T23:01:01.496Z,26.18
2018-06-30T23:04:04.813Z,26.37
2018-06-30T23:07:06.904Z,26.67
2018-06-30T23:10:10.122Z,26.88
2018-06-30T23:13:12.180Z,26.99
2018-06-30T23:16:14.315Z,27.08
2018-06-30T23:19:16.399Z,27.27
2018-06-30T23:23:25.570Z,27.41
2018-06-30T23:26:27.694Z,27.43
2018-06-30T23:29:29.788Z,27.59
2018-06-30T23:32:31.803Z,27.90
2018-06-30T23:35:35.077Z,28.02
2018-06-30T23:38:37.196Z,28.23
2018-06-30T23:41:39.352Z,28.34
2018-06-30T23:44:41.547Z,28.29
2018-06-30T23:47:43.559Z,28.58
2018-06-30T23:50:45.705Z,28.79
2018-06-30T23:53:47.704Z,28.89
2018-06-30T23:56:49.814Z,28.91
2018-06-30T23:59:51.931Z,29.14
